• Join FlightAware (Why Join?)
  • Login
  • US Flag 
11:49PM EDT


 

Airport Tracker/Info


-or-


 

Live Flight TrackerFlight Track Log ✈ N51EM ✈ 22-Oct-2013 ✈ KDAB - KABE

Flight Track Log - Related Links

Times and Time Zones

All times are in EDT time to prevent confusion due to time zone crossing. See the N51EM flight status page for this flight to view local times or setup timezone preferences in your user account.

Time Position Orientation Groundspeed Altitude Reporting Facility
EDT Latitude Longitude Course Direction KTS MPH feet Rate Location/Type
10:09PM 29.1681 -81.0853 250° West 175 201 500  Level Jacksonville Center
10:10PM 29.1561 -81.1236 250° West 203 234 1,900 2,040 Climbing Jacksonville Center
10:10PM 29.1631 -81.1708 280° West 216 249 3,400 2,640 Climbing Jacksonville Center
10:11PM 29.2406 -81.1958 344° North 210 242 6,700 2,520 Climbing Jacksonville Center
10:12PM 29.2975 -81.2353 329° Northwest 241 277 8,600 1,980 Climbing Jacksonville Center
10:13PM 29.3608 -81.2889 324° Northwest 264 304 10,700 2,040 Climbing Jacksonville Center
10:14PM 29.4344 -81.3308 334° Northwest 286 329 12,700 2,100 Climbing Jacksonville Center
10:15PM 29.5144 -81.3914 327° Northwest 296 341 15,000 1,860 Climbing Jacksonville Center
10:16PM 29.6061 -81.3853 North 305 351 16,500 1,440 Climbing Jacksonville Center
10:17PM 29.7064 -81.3767 North 322 371 17,900 1,500 Climbing Jacksonville Center
10:18PM 29.8061 -81.3367 19° North 346 398 19,500 1,380 Climbing Jacksonville Center
10:19PM 29.9017 -81.2969 20° North 357 411 20,700 1,200 Climbing Jacksonville Center
10:20PM 30.0033 -81.2567 19° North 368 423 21,900 1,080 Climbing Jacksonville Center
10:21PM 30.1072 -81.2119 20° North 379 436 22,900 840 Climbing Jacksonville Center
10:22PM 30.1903 -81.1767 20° North 384 442 23,600 1,080 Climbing Jacksonville Center
10:24PM 30.4228 -81.0836 19° North 463 533 26,200 1,140 Climbing Jacksonville Center
10:25PM 30.5308 -81.0381 20° North 434 499 27,100 900 Climbing Jacksonville Center
10:26PM 30.6386 -80.9925 20° North 418 481 28,100 960 Climbing Jacksonville Center
10:27PM 30.7506 -80.9467 19° North 418 481 29,100 1,140 Climbing Jacksonville Center
10:28PM 30.8503 -80.9036 20° North 412 474 30,400 1,140 Climbing Jacksonville Center
10:29PM 30.9622 -80.8625 17° North 417 480 31,400 1,020 Climbing Jacksonville Center
10:30PM 31.0681 -80.8142 21° North 417 480 32,500 900 Climbing Jacksonville Center
10:31PM 31.1800 -80.7728 18° North 417 480 33,300 780 Climbing Jacksonville Center
10:32PM 31.2900 -80.7242 21° North 417 480 34,100 780 Climbing Jacksonville Center
10:33PM 31.4017 -80.6753 20° North 423 487 34,900 420 Climbing Jacksonville Center
10:34PM 31.5200 -80.6286 19° North 428 493 35,000  Climbing Jacksonville Center
10:35PM 31.6422 -80.5767 20° North 448 516 35,000  Level Jacksonville Center
10:36PM 31.7789 -80.5172 20° North 471 542 35,100 300 Climbing Jacksonville Center
10:37PM 31.8969 -80.4675 20° North 483 556 35,700 540 Climbing Jacksonville Center
10:38PM 32.0192 -80.4153 20° North 483 556 36,200 540 Climbing Jacksonville Center
10:39PM 32.1453 -80.3606 20° North 483 556 36,800 600 Climbing Jacksonville Center
10:40PM 32.2736 -80.3053 20° North 483 556 37,500 600 Climbing Jacksonville Center
10:41PM 32.3978 -80.2525 20° North 483 556 38,100 600 Climbing Jacksonville Center
10:42PM 32.5200 -80.2047 18° North 477 549 38,700 420 Climbing Jacksonville Center
10:43PM 32.6467 -80.1714 12° North 466 536 39,000 120 Climbing Jacksonville Center
10:44PM 32.7731 -80.1331 14° North 466 536 39,000  Level Jacksonville Center
10:45PM 32.9142 -80.0867 15° North 472 543 39,000  Level Jacksonville Center
10:46PM 33.0489 -80.0428 15° North 478 550 39,000  Level Jacksonville Center
10:47PM 33.1836 -80.0111 11° North 488 562 39,000  Level Jacksonville Center
10:48PM 33.3142 -79.9719 14° North 488 562 39,000  Level Jacksonville Center
10:49PM 33.4469 -79.9328 14° North 488 562 39,000  Level Jacksonville Center
10:50PM 33.5817 -79.8933 14° North 488 562 39,000  Level Jacksonville Center
10:51PM 33.7122 -79.8542 14° North 488 562 39,000  Level Jacksonville Center
10:52PM 33.8469 -79.8144 14° North 488 562 39,000  Level Jacksonville Center
10:53PM 33.9836 -79.7744 14° North 488 562 39,000  Level Jacksonville Center
10:54PM 34.1161 -79.7322 15° North 488 562 39,000  Level Jacksonville Center
10:57PM 34.3994 -79.6442 14° North 495 570 39,000  Level Washington Center
10:58PM 34.5364 -79.6056 13° North 495 570 39,000  Level Washington Center
10:59PM 34.6714 -79.5642 14° North 495 570 39,000  Level Washington Center
11:00PM 34.8125 -79.5231 13° North 500 575 39,000  Level Washington Center
11:01PM 34.9494 -79.4792 15° North 500 575 39,000  Level Washington Center
11:02PM 35.0844 -79.4372 14° North 500 575 39,000 -300 Level Washington Center
11:03PM 35.2256 -79.3958 13° North 500 575 38,500 -780 Descending Washington Center
11:04PM 35.3836 -79.3447 15° North 513 590 37,500 -900 Descending Washington Center
11:05PM 35.5122 -79.3047 14° North 528 608 36,700 -840 Descending Washington Center
11:06PM 35.6575 -79.2603 14° North 528 608 35,900 -840 Descending Washington Center
11:07PM 35.8031 -79.2133 15° North 534 615 35,100 -420 Descending Washington Center
11:08PM 35.9483 -79.1661 15° North 534 615 35,100  Level Washington Center
11:09PM 36.0958 -79.1189 15° North 534 615 35,100  Level Washington Center
11:10PM 36.2517 -79.0692 14° North 534 615 35,100  Level Washington Center
11:11PM 36.3947 -79.0239 14° North 534 615 35,100  Level Washington Center
11:12PM 36.5381 -78.9786 14° North 534 615 35,100 -420 Level Washington Center
11:13PM 36.6708 -78.9325 16° North 535 616 34,300 -900 Descending Washington Center
11:14PM 36.8158 -78.8869 14° North 540 621 33,400 -900 Descending Washington Center
11:15PM 36.9653 -78.8386 14° North 540 621 32,600 -900 Descending Washington Center
11:16PM 37.1294 -78.7856 14° North 540 621 31,700 -900 Descending Washington Center
11:17PM 37.2769 -78.7369 15° North 540 621 30,900 -840 Descending Washington Center
11:18PM 37.4242 -78.6881 15° North 540 621 30,100 -900 Descending Washington Center
11:19PM 37.5586 -78.6464 14° North 540 621 29,200 -900 Descending Washington Center
11:20PM 37.7019 -78.5972 15° North 540 621 28,400 -900 Descending Washington Center
11:21PM 37.8428 -78.5500 15° North 527 606 27,500 -720 Descending Washington Center
11:22PM 37.9919 -78.5006 15° North 513 590 27,000 -300 Descending Washington Center
11:23PM 38.1267 -78.4531 16° North 503 579 27,000  Level Washington Center
11:24PM 38.2611 -78.4106 14° North 498 573 27,000  Level Washington Center
11:25PM 38.4000 -78.3603 16° North 498 573 27,000  Level Washington Center
11:26PM 38.5344 -78.3147 15° North 498 573 27,000  Level Washington Center
11:27PM 38.6542 -78.2739 15° North 498 573 27,000  Level Washington Center
11:28PM 38.7928 -78.2258 15° North 498 573 27,000  Level Washington Center
11:29PM 38.9256 -78.1639 20° North 498 573 27,000  Level Washington Center
11:30PM 39.0564 -78.0831 26° Northeast 509 586 27,000 -720 Level Washington Center
11:32PM 39.3144 -77.9286 25° Northeast 519 597 24,900 -1,140 Descending New York Center
11:33PM 39.4381 -77.8522 26° Northeast 502 578 23,600 -1,320 Descending New York Center
11:34PM 39.5594 -77.7756 26° Northeast 495 570 22,300 -1,320 Descending New York Center
11:35PM 39.6761 -77.7061 25° Northeast 476 548 21,000 -1,320 Descending New York Center
11:36PM 39.7911 -77.6311 27° Northeast 463 533 19,700 -1,020 Descending New York Center
11:37PM 39.8683 -77.4844 56° Northeast 431 496 19,000 -360 Descending New York Center
11:38PM 39.9219 -77.3433 64° Northeast 431 496 19,000  Level New York Center
11:39PM 39.9797 -77.2025 62° Northeast 437 503 19,000 -600 Level New York Center
11:40PM 40.0358 -77.0558 63° Northeast 442 509 17,800 -1,260 Descending New York Center
11:41PM 40.0911 -76.9169 62° Northeast 442 509 16,500 -1,380 Descending New York Center
11:42PM 40.1456 -76.7886 61° Northeast 415 478 15,100 -1,620 Descending New York Center
11:43PM 40.1894 -76.6619 66° East 410 472 13,300 -1,800 Descending New York Center
11:44PM 40.2372 -76.5381 63° Northeast 400 460 11,600 -1,740 Descending New York Center
11:45PM 40.2897 -76.4036 63° Northeast 388 447 9,900 -900 Descending New York Center
11:46PM 40.3325 -76.2875 64° Northeast 368 423 9,900  Level New York Center
11:47PM 40.3703 -76.1922 62° Northeast 331 381 9,900 -480 Level New York Center
11:48PM 40.4153 -76.0758 63° Northeast 325 374 9,000 -960 Descending New York Center
11:49PM 40.4556 -75.9697 63° Northeast 320 368 8,000 -1,020 Descending New York Center
11:50PM 40.4853 -75.8575 71° East 327 376 7,000 -1,020 Descending New York Center
11:51PM 40.5039 -75.7633 75° East 310 357 6,000 -1,320 Descending New York Center
11:52PM 40.5367 -75.6756 64° Northeast 283 326 4,400 -1,680 Descending New York Center
11:53PM 40.5694 -75.5878 64° Northeast 241 277 2,700 -1,320 Descending New York Center
11:54PM 40.5989 -75.5297 56° Northeast 205 236 1,800 -660 Descending New York Center
11:55PM 40.6264 -75.4714 58° Northeast 183 211 1,400 2,580 Descending New York Center
11:56PM 40.6556 -75.4186 54° Northeast 183 211 7,000 2,760 Climbing New York Center
11:57PM 40.6825 -75.3658 56° Northeast 183 211 7,000  Level New York Center
11:58PM 40.7117 -75.3131 54° Northeast 183 211 7,000  Level New York Center
11:59PM 40.7275 -75.2811 57° Northeast 183 211 7,000  Level New York Center
12:00AM 40.7275 -75.2811 270° West 183 211 7,000  Level New York Center
12:01AM 40.7275 -75.2811 270° West 183 211 7,000  Level New York Center